createdAt,value
2018-09-19T00:03:22.847Z,94411.28
2018-09-19T00:18:27.022Z,94401.47
2018-09-19T00:33:31.107Z,94405.60
2018-09-19T00:48:35.261Z,94411.66
2018-09-19T01:03:39.444Z,94405.47
2018-09-19T01:18:43.670Z,94404.84
2018-09-19T01:33:47.787Z,94396.02
2018-09-19T01:48:52.034Z,94394.42
2018-09-19T02:03:55.928Z,94400.23
2018-09-19T02:19:03.833Z,94392.14
2018-09-19T02:34:08.169Z,94398.90
2018-09-19T02:49:14.576Z,94399.51
2018-09-19T03:04:18.764Z,94409.18
2018-09-19T03:19:24.965Z,94399.42
2018-09-19T03:34:28.806Z,94408.38
2018-09-19T03:49:32.669Z,94404.88
2018-09-19T04:04:36.935Z,94400.13
2018-09-19T04:19:41.377Z,94396.88
2018-09-19T04:34:45.456Z,94410.88
2018-09-19T04:49:49.564Z,94402.42
2018-09-19T05:04:53.569Z,94415.55
2018-09-19T05:19:57.866Z,94402.73
2018-09-19T05:35:02.059Z,94404.22
2018-09-19T05:50:09.779Z,94403.30
2018-09-19T06:05:13.604Z,94427.01
2018-09-19T06:20:17.398Z,94430.93
2018-09-19T06:35:21.842Z,94424.45
2018-09-19T06:50:25.663Z,94418.59
2018-09-19T07:05:30.498Z,94424.34
2018-09-19T07:20:34.318Z,94435.19
2018-09-19T07:35:38.438Z,94435.23
2018-09-19T07:50:42.237Z,94427.26
2018-09-19T08:05:46.049Z,94417.80
2018-09-19T08:20:49.897Z,94419.03
2018-09-19T08:35:53.740Z,94419.29
2018-09-19T08:50:57.583Z,94408.14
2018-09-19T09:06:02.329Z,94393.45
2018-09-19T09:21:06.716Z,94386.77
2018-09-19T09:36:10.541Z,94377.48
2018-09-19T09:51:14.378Z,94373.23
2018-09-19T10:06:19.125Z,94365.38
2018-09-19T10:21:22.971Z,94355.02
2018-09-19T10:36:26.784Z,94332.38
2018-09-19T10:51:30.669Z,94329.44
2018-09-19T11:06:36.810Z,94314.47
2018-09-19T11:21:40.643Z,94304.73
2018-09-19T11:36:44.435Z,94285.09
2018-09-19T11:51:48.209Z,94275.33
2018-09-19T12:06:52.493Z,94254.84
2018-09-19T12:21:56.274Z,94236.42
2018-09-19T12:37:00.104Z,94222.20
2018-09-19T12:52:04.378Z,94225.75
2018-09-19T13:07:08.363Z,94208.94
2018-09-19T13:22:12.225Z,94195.02
2018-09-19T13:37:16.068Z,94179.03
2018-09-19T13:52:19.875Z,94189.84
2018-09-19T14:07:23.701Z,94184.02
2018-09-19T14:22:28.420Z,94184.87
2018-09-19T14:37:32.607Z,94174.77
2018-09-19T14:52:36.926Z,94171.16
2018-09-19T15:07:41.108Z,94170.52
2018-09-19T15:22:45.977Z,94181.50
2018-09-19T15:37:52.313Z,94192.75
2018-09-19T15:52:58.345Z,94196.03
2018-09-19T16:08:02.482Z,94198.75
2018-09-19T16:23:06.814Z,94209.45
2018-09-19T16:38:10.731Z,94223.59
2018-09-19T16:53:15.129Z,94231.22
2018-09-19T17:08:18.972Z,94251.94
2018-09-19T17:23:23.111Z,94273.48
2018-09-19T17:38:27.210Z,94297.02
2018-09-19T17:53:33.760Z,94320.53
2018-09-19T18:08:37.706Z,94317.64
2018-09-19T18:23:43.311Z,94313.71
2018-09-19T18:38:47.195Z,94331.98
2018-09-19T18:53:51.467Z,94334.62
2018-09-19T19:08:55.432Z,94337.89
2018-09-19T19:23:59.284Z,94348.75
2018-09-19T19:39:03.196Z,94345.83
2018-09-19T19:54:07.440Z,94345.84
2018-09-19T20:09:11.278Z,94341.82
2018-09-19T20:24:46.035Z,94341.64
2018-09-19T20:40:19.937Z,94337.70
2018-09-19T20:55:49.457Z,94331.42
2018-09-19T21:10:53.535Z,94330.85
2018-09-19T21:25:58.592Z,94340.44
2018-09-19T21:41:02.440Z,94353.28
2018-09-19T21:56:37.051Z,94354.13
2018-09-19T22:12:11.964Z,94346.88
2018-09-19T22:27:46.648Z,94336.89
2018-09-19T22:43:21.351Z,94325.49
2018-09-19T22:58:55.769Z,94327.66
2018-09-19T23:14:31.424Z,94318.27
2018-09-19T23:30:05.650Z,94301.52
2018-09-19T23:45:40.569Z,94308.84
